Details From DAUH - OUED IRARA
To DABC - MOHAMED BOUDIAF INTL
Flight Number -
Tags generated
Created
Modified
Stats Distance 280 nm / 519 km
Max Altitude 28,700 ft / 8,748 m
Waypoints 4
Social Downloads 0
Likes 0
Share

Download

Looking for another format? Having issues loading an existing format? Contact us
Advertisement - Login to hide

Notes

Basic altitude profile: - Ascent Rate: 2200ft/min - Ascent Speed: 170kts - Cruise Altitude: 190ft - Cruise Speed: 230kts - Descent Rate: 1500ft/min - Descent Speed: 230kts Options: - Use NATs: yes - Use PACOTS: yes - Use low airways: yes - Use high airways: yes

Route

DAUH TGU J12 NADJI DABC

ID Type Via Altitude (ft/m) Position (lat/lon) Dist (leg/tot) Name
O DAUH APT - 0 / 0 31.67290 / 6.14046 - / 0 nm OUED IRARA
TGU VOR - 28,700 / 8,748 33.05694 / 6.08861 83 / 83 nm TOUGGOURT VOR-DME
NADJI FIX J12 (AWY-HI) 17,900 / 5,456 34.80000 / 6.65000 108 / 191 nm
O DABC APT - 0 / 0 36.27604 / 6.62028 88 / 280 nm MOHAMED BOUDIAF INTL

Altitude Profile

Advertisement - Login to hide

Weather


0- 5 10 15 20 25 30 35+ Temperature / °C

Clouds and Precipitation
Forecast for 2021-03-22 12:00 UTC. Updated 2 months ago

Ground ~20,000 ft ~40,000 ft Winds

DAUH

Details ICAO DAUH (HME)
Name Hassi Messaoud/Krim Belkacem
Region Algeria
Timezone Africa/Algiers (UTC+1.0)
Stats Elevation 462 ft / 141 m (AMSL)
Location 31.672800° 6.140350°
Runways 1
Magnetic Variation 1.728° E

METAR

DAUH 111900Z 35012KT 2000 SA NSC 30/00 Q1013

Decode

TAF

TAF DAUH 111700Z 1118/1218 36018KT 1500 SA NSC BECMG 1120/1123 02008KT 6000 NSW PROB30 TEMPO 1200/1206 3000 HZ

Decode

Departure Runways

ID Width Length Bearing (true/mag) Surface Threshold Overrun Markings Lighting
18 138 ft / 42 m 9,945 ft / 3,031 m 184.21° / 182.48° ASPHALT 0 ft / 0 m 0 ft / 0 m PREC-APP EDGE THRESHOLD
36 138 ft / 42 m 9,945 ft / 3,031 m 4.21° / 2.48° ASPHALT 0 ft / 0 m 0 ft / 0 m PREC-APP EDGE THRESHOLD

DABC

Details ICAO DABC (CZL)
Name Mohamed Boudiaf International
Region Algeria
Timezone Africa/Algiers (UTC+1.0)
Stats Elevation 2,316 ft / 706 m (AMSL)
Location 36.276000° 6.620350°
Runways 2
Magnetic Variation 2.064° E

METAR

DABC 111900Z 36010KT 9999 FEW026 BKN200 14/08 Q1020

Decode

TAF

TAF DABC 111700Z 1118/1218 34012KT 9999 BKN026 PROB30 1118/1122 FEW026CB BECMG 1120/1122 21008KT

Decode

Destination Runways

ID Width Length Bearing (true/mag) Surface Threshold Overrun Markings Lighting
13 148 ft / 45 m 7,848 ft / 2,392 m 136.20° / 134.14° ASPHALT 341 ft / 104 m 344 ft / 105 m PREC-APP EDGE THRESHOLD RAIL REIL-UNI
16 148 ft / 45 m 9,841 ft / 3,000 m 159.16° / 157.10° ASPHALT 0 ft / 0 m 390 ft / 119 m PREC-APP EDGE THRESHOLD RAIL
31 148 ft / 45 m 7,848 ft / 2,392 m 316.21° / 314.15° ASPHALT 0 ft / 0 m 200 ft / 61 m PREC-APP EDGE THRESHOLD RAIL
34 148 ft / 45 m 9,841 ft / 3,000 m 339.17° / 337.11° ASPHALT 0 ft / 0 m 420 ft / 128 m PREC-APP EDGE THRESHOLD RAIL

Popular Alternatives